createdAt,value
2023-01-05T00:01:37.397Z,8.68
2023-01-05T00:04:39.465Z,8.75
2023-01-05T00:07:41.609Z,8.70
2023-01-05T00:11:01.925Z,8.71
2023-01-05T00:14:23.720Z,8.68
2023-01-05T00:17:44.008Z,8.62
2023-01-05T00:21:03.947Z,8.63
2023-01-05T00:24:05.885Z,8.67
2023-01-05T00:27:07.511Z,8.69
2023-01-05T00:30:11.652Z,8.73
2023-01-05T00:33:14.324Z,8.71
2023-01-05T00:36:15.897Z,8.67
2023-01-05T00:39:17.427Z,8.64
2023-01-05T00:42:19.881Z,8.65
2023-01-05T00:45:22.820Z,8.64
2023-01-05T00:48:24.504Z,8.65
2023-01-05T00:51:26.031Z,8.67
2023-01-05T00:54:28.032Z,8.69
2023-01-05T00:57:29.564Z,8.69
2023-01-05T01:00:32.670Z,8.65
2023-01-05T01:03:34.345Z,8.52
2023-01-05T01:06:36.026Z,8.50
2023-01-05T01:09:37.735Z,8.42
2023-01-05T01:12:39.493Z,8.38
2023-01-05T01:15:42.491Z,8.37
2023-01-05T01:18:45.635Z,8.36
2023-01-05T01:21:48.584Z,8.33
2023-01-05T01:24:50.281Z,8.32
2023-01-05T01:27:51.986Z,8.33
2023-01-05T01:30:55.162Z,8.32
2023-01-05T01:33:56.782Z,8.33
2023-01-05T01:36:59.137Z,8.32
2023-01-05T01:40:08.803Z,8.30
2023-01-05T01:43:14.410Z,8.24
2023-01-05T01:46:19.623Z,8.25
2023-01-05T01:49:21.240Z,8.27
2023-01-05T01:52:24.012Z,8.23
2023-01-05T01:55:26.919Z,8.25
2023-01-05T01:58:29.574Z,8.25
2023-01-05T02:01:33.004Z,8.29
2023-01-05T02:04:36.806Z,8.27
2023-01-05T02:07:43.645Z,8.29
2023-01-05T02:10:55.411Z,8.35
2023-01-05T02:14:03.600Z,8.37
2023-01-05T02:17:15.105Z,8.35
2023-01-05T02:20:28.755Z,8.37
2023-01-05T02:23:51.056Z,8.41
2023-01-05T02:27:11.426Z,8.43
2023-01-05T02:30:32.397Z,8.42
2023-01-05T02:33:47.007Z,8.43
2023-01-05T02:36:53.362Z,8.45
2023-01-05T02:39:58.094Z,8.45
2023-01-05T02:43:01.044Z,8.45
2023-01-05T02:46:02.749Z,8.45
2023-01-05T02:49:06.439Z,8.43
2023-01-05T02:52:09.539Z,8.42
2023-01-05T02:55:13.545Z,8.42
2023-01-05T02:58:17.608Z,8.46
2023-01-05T03:01:20.661Z,8.46
2023-01-05T03:04:28.285Z,8.49
2023-01-05T03:07:32.626Z,8.45
2023-01-05T03:10:55.460Z,8.43
2023-01-05T03:13:59.526Z,8.44
2023-01-05T03:17:01.975Z,8.43
2023-01-05T03:20:08.690Z,8.39
2023-01-05T03:23:31.167Z,8.40
2023-01-05T03:26:52.156Z,8.40
2023-01-05T03:30:13.035Z,8.37
2023-01-05T03:33:35.753Z,8.32
2023-01-05T03:36:41.523Z,8.31
2023-01-05T03:43:07.619Z,8.27
2023-01-05T03:46:10.912Z,8.21
2023-01-05T03:49:13.829Z,8.12
2023-01-05T03:52:15.451Z,8.08
2023-01-05T03:55:17.686Z,8.03
2023-01-05T03:58:20.776Z,7.92
2023-01-05T04:01:24.395Z,7.88
2023-01-05T04:04:27.481Z,7.85
2023-01-05T04:07:29.627Z,7.81
2023-01-05T04:10:31.926Z,7.81
2023-01-05T04:13:36.528Z,7.80
2023-01-05T04:16:38.159Z,7.79
2023-01-05T04:19:48.857Z,7.78
2023-01-05T04:22:50.508Z,7.78
2023-01-05T04:25:54.605Z,7.80
2023-01-05T04:28:59.632Z,7.80
2023-01-05T04:32:03.027Z,7.82
2023-01-05T04:35:11.021Z,7.79
2023-01-05T04:38:14.743Z,7.76
2023-01-05T04:41:16.580Z,7.77
2023-01-05T04:44:23.767Z,7.76
2023-01-05T04:47:25.584Z,7.77
2023-01-05T04:50:28.970Z,7.78
2023-01-05T04:53:33.614Z,7.78
2023-01-05T04:56:35.497Z,7.80
2023-01-05T04:59:40.781Z,7.81
2023-01-05T05:02:43.167Z,7.79
2023-01-05T05:05:48.492Z,7.79
2023-01-05T05:08:51.048Z,7.78
2023-01-05T05:11:52.929Z,7.77
2023-01-05T05:14:58.586Z,7.78
2023-01-05T05:18:05.562Z,7.79
2023-01-05T05:21:10.863Z,7.82
2023-01-05T05:24:14.198Z,7.84
2023-01-05T05:27:18.975Z,7.85
2023-01-05T05:30:22.368Z,7.87
2023-01-05T05:33:24.996Z,7.87
2023-01-05T05:36:26.751Z,7.89
2023-01-05T05:39:28.324Z,7.87
2023-01-05T05:42:30.191Z,7.87
2023-01-05T05:45:33.099Z,7.83
2023-01-05T05:48:34.777Z,7.80
2023-01-05T05:51:36.651Z,7.76
2023-01-05T05:54:38.427Z,7.76
2023-01-05T05:57:39.927Z,7.75
2023-01-05T06:00:42.892Z,7.72
2023-01-05T06:03:44.437Z,7.69
2023-01-05T06:06:46.104Z,7.66
2023-01-05T06:09:47.642Z,7.65
2023-01-05T06:12:49.296Z,7.62
2023-01-05T06:15:52.258Z,7.58
2023-01-05T06:18:54.378Z,7.57
2023-01-05T06:21:56.037Z,7.55
2023-01-05T06:24:57.577Z,7.60
2023-01-05T06:27:59.687Z,7.60
2023-01-05T06:31:02.710Z,7.58
2023-01-05T06:34:04.395Z,7.59
2023-01-05T06:37:06.500Z,7.62
2023-01-05T06:40:10.067Z,7.63
2023-01-05T06:43:11.759Z,7.61
2023-01-05T06:46:14.781Z,7.62
2023-01-05T06:49:16.690Z,7.60
2023-01-05T06:52:18.356Z,7.60
2023-01-05T06:55:21.905Z,7.60
2023-01-05T06:58:23.461Z,7.58
2023-01-05T07:01:26.470Z,7.59
2023-01-05T07:04:28.175Z,7.55
2023-01-05T07:07:29.825Z,7.57
2023-01-05T07:10:31.536Z,7.60
2023-01-05T07:13:33.104Z,7.59
2023-01-05T07:16:36.222Z,7.61
2023-01-05T07:19:37.983Z,7.60
2023-01-05T07:22:39.717Z,7.59
2023-01-05T07:25:44.374Z,7.57
2023-01-05T07:28:46.179Z,7.57
2023-01-05T07:31:52.339Z,7.56
2023-01-05T07:34:55.894Z,7.54
2023-01-05T07:37:57.705Z,7.50
2023-01-05T07:40:59.756Z,7.51
2023-01-05T07:44:01.542Z,7.50
2023-01-05T07:47:04.635Z,7.51
2023-01-05T07:50:06.876Z,7.52
2023-01-05T07:53:08.561Z,7.50
2023-01-05T07:56:10.893Z,7.50
2023-01-05T07:59:12.545Z,7.50
2023-01-05T08:02:15.804Z,7.48
2023-01-05T08:05:17.597Z,7.48
2023-01-05T08:08:24.153Z,7.47
2023-01-05T08:11:26.176Z,7.48
2023-01-05T08:14:27.745Z,7.50
2023-01-05T08:17:30.779Z,7.49
2023-01-05T08:20:32.583Z,7.49
2023-01-05T08:23:34.444Z,7.51
2023-01-05T08:40:51.593Z,7.52
2023-01-05T08:43:54.973Z,7.54
2023-01-05T08:46:56.758Z,7.59
2023-01-05T08:49:58.747Z,7.60
2023-01-05T08:53:00.369Z,7.59
2023-01-05T08:56:03.794Z,7.57
2023-01-05T08:59:05.655Z,7.64
2023-01-05T09:02:10.662Z,7.62
2023-01-05T09:05:12.571Z,7.62
2023-01-05T09:08:14.331Z,7.61
2023-01-05T09:11:21.216Z,7.61
2023-01-05T09:14:23.122Z,7.59
2023-01-05T09:17:27.228Z,7.59
2023-01-05T09:20:32.009Z,7.58
2023-01-05T09:23:37.409Z,7.60
2023-01-05T09:26:40.648Z,7.64
2023-01-05T09:29:42.782Z,7.67
2023-01-05T09:32:44.463Z,7.65
2023-01-05T09:35:53.537Z,7.68
2023-01-05T09:38:58.981Z,7.66
2023-01-05T09:42:04.562Z,7.70
2023-01-05T09:45:07.434Z,7.71
2023-01-05T09:48:14.554Z,7.72
2023-01-05T09:51:16.367Z,7.75
2023-01-05T09:54:19.409Z,7.79
2023-01-05T09:57:27.102Z,7.78
2023-01-05T10:00:30.359Z,7.78
2023-01-05T10:04:02.913Z,7.76
2023-01-05T10:07:01.470Z,7.71
2023-01-05T10:10:08.925Z,7.68
2023-01-05T10:13:21.847Z,7.69
2023-01-05T10:16:29.249Z,7.69
2023-01-05T10:19:31.504Z,7.70
2023-01-05T10:22:43.992Z,7.67
2023-01-05T10:25:53.022Z,7.71
2023-01-05T10:29:02.373Z,7.71
2023-01-05T10:32:12.693Z,7.74
2023-01-05T10:38:57.553Z,7.77
2023-01-05T10:42:03.734Z,7.80
2023-01-05T10:45:10.361Z,7.81
2023-01-05T10:48:17.320Z,7.83
2023-01-05T10:51:19.813Z,7.82
2023-01-05T10:54:29.796Z,7.82
2023-01-05T10:57:36.783Z,7.77
2023-01-05T11:00:42.809Z,7.72
2023-01-05T11:04:25.076Z,7.70
2023-01-05T11:07:09.543Z,7.65
2023-01-05T11:10:20.903Z,7.69
2023-01-05T11:13:32.339Z,7.70
2023-01-05T11:16:38.345Z,7.76
2023-01-05T11:19:45.483Z,7.81
2023-01-05T11:22:48.502Z,7.83
2023-01-05T11:25:50.231Z,7.87
2023-01-05T11:29:16.389Z,7.91
2023-01-05T11:32:19.614Z,7.94
2023-01-05T11:35:28.501Z,8.03
2023-01-05T11:38:31.678Z,8.07
2023-01-05T11:41:34.921Z,8.07
2023-01-05T11:44:37.701Z,8.11
2023-01-05T11:47:45.786Z,8.11
2023-01-05T11:50:50.432Z,8.15
2023-01-05T11:53:52.393Z,8.29
2023-01-05T11:57:12.770Z,8.25
2023-01-05T12:00:23.491Z,8.22
2023-01-05T12:04:01.405Z,8.20
2023-01-05T12:07:23.973Z,8.20
2023-01-05T12:10:35.040Z,8.17
2023-01-05T12:14:01.774Z,8.19
2023-01-05T12:17:12.739Z,8.20
2023-01-05T12:20:37.627Z,8.23
2023-01-05T12:23:58.874Z,8.25
2023-01-05T12:27:12.541Z,8.30
2023-01-05T12:34:13.895Z,8.28
2023-01-05T12:37:29.337Z,8.25
2023-01-05T12:40:50.262Z,8.24
2023-01-05T12:44:06.400Z,8.23
2023-01-05T12:47:26.423Z,8.21
2023-01-05T12:50:35.802Z,8.25
2023-01-05T12:53:50.429Z,8.22
2023-01-05T12:56:58.463Z,8.28
2023-01-05T13:00:06.505Z,8.31
2023-01-05T13:03:17.221Z,8.31
2023-01-05T13:06:24.418Z,8.32
2023-01-05T13:09:32.109Z,8.29
2023-01-05T13:12:35.772Z,8.22
2023-01-05T13:15:42.851Z,8.20
2023-01-05T13:18:51.103Z,8.18
2023-01-05T13:21:54.788Z,8.16
2023-01-05T13:25:04.110Z,8.16
2023-01-05T13:31:33.022Z,8.14
2023-01-05T13:35:13.230Z,8.15
2023-01-05T13:39:04.113Z,8.13
2023-01-05T13:42:23.173Z,8.13
2023-01-05T13:46:07.302Z,8.09
2023-01-05T13:49:44.884Z,8.08
2023-01-05T13:53:01.773Z,8.05
2023-01-05T13:56:10.149Z,8.00
2023-01-05T13:59:34.729Z,7.94
2023-01-05T14:02:44.651Z,7.92
2023-01-05T14:05:49.554Z,7.85
2023-01-05T14:08:56.656Z,7.82
2023-01-05T14:12:25.989Z,7.77
2023-01-05T14:15:38.859Z,7.68
2023-01-05T14:18:51.269Z,7.67
2023-01-05T14:22:03.348Z,7.60
2023-01-05T14:25:43.586Z,7.55
2023-01-05T14:28:49.304Z,7.52
2023-01-05T14:31:52.786Z,7.51
2023-01-05T14:38:02.463Z,7.53
2023-01-05T14:41:15.740Z,7.51
2023-01-05T14:44:19.835Z,7.51
2023-01-05T14:47:38.752Z,7.50
2023-01-05T14:50:42.743Z,7.54
2023-01-05T14:53:46.618Z,7.55
2023-01-05T14:57:22.630Z,7.59
2023-01-05T15:01:03.397Z,7.61
2023-01-05T15:04:11.035Z,7.60
2023-01-05T15:07:31.143Z,7.63
2023-01-05T15:11:14.891Z,7.62
2023-01-05T15:14:48.874Z,7.64
2023-01-05T15:18:05.706Z,7.67
2023-01-05T15:21:35.172Z,7.64
2023-01-05T15:25:02.015Z,7.68
2023-01-05T15:28:36.427Z,7.68
2023-01-05T15:31:42.110Z,7.67
2023-01-05T15:34:52.387Z,7.69
2023-01-05T15:37:55.638Z,7.69
2023-01-05T15:41:02.446Z,7.70
2023-01-05T15:44:05.995Z,7.70
2023-01-05T15:47:10.618Z,7.69
2023-01-05T15:50:19.305Z,7.70
2023-01-05T15:53:26.428Z,7.70
2023-01-05T15:56:31.875Z,7.70
2023-01-05T15:59:38.833Z,7.66
2023-01-05T16:02:41.051Z,7.68
2023-01-05T16:05:43.363Z,7.72
2023-01-05T16:08:48.043Z,7.69
2023-01-05T16:11:53.391Z,7.70
2023-01-05T16:15:01.665Z,7.70
2023-01-05T16:18:06.080Z,7.71
2023-01-05T16:21:14.200Z,7.72
2023-01-05T16:24:22.992Z,7.73
2023-01-05T16:27:25.264Z,7.72
2023-01-05T16:30:28.972Z,7.74
2023-01-05T16:33:36.048Z,7.75
2023-01-05T16:36:38.098Z,7.78
2023-01-05T16:39:42.713Z,7.78
2023-01-05T16:42:48.600Z,7.78
2023-01-05T16:45:51.605Z,7.76
2023-01-05T16:48:56.051Z,7.76
2023-01-05T16:51:58.676Z,7.78
2023-01-05T16:55:31.112Z,7.79
2023-01-05T16:58:36.062Z,7.80
2023-01-05T17:01:41.308Z,7.81
2023-01-05T17:04:43.185Z,7.78
2023-01-05T17:07:47.837Z,7.81
2023-01-05T17:10:54.782Z,7.81
2023-01-05T17:13:56.825Z,7.82
2023-01-05T17:17:01.593Z,7.81
2023-01-05T17:20:04.725Z,7.82
2023-01-05T17:23:06.568Z,7.81
2023-01-05T17:26:12.160Z,7.81
2023-01-05T17:29:19.281Z,7.80
2023-01-05T17:32:21.313Z,7.79
2023-01-05T17:35:23.264Z,7.77
2023-01-05T17:38:25.321Z,7.77
2023-01-05T17:41:28.595Z,7.77
2023-01-05T17:44:31.290Z,7.77
2023-01-05T17:50:34.956Z,7.77
2023-01-05T17:53:36.809Z,7.77
2023-01-05T17:56:40.098Z,7.75
2023-01-05T18:02:44.664Z,7.74
2023-01-05T18:05:46.662Z,7.74
2023-01-05T18:08:48.439Z,7.75
2023-01-05T18:11:52.653Z,7.74
2023-01-05T18:14:54.522Z,7.74
2023-01-05T18:17:56.796Z,7.72
2023-01-05T18:20:59.760Z,7.72
2023-01-05T18:24:01.631Z,7.68
2023-01-05T18:27:07.146Z,7.68
2023-01-05T18:30:10.686Z,7.65
2023-01-05T18:36:19.490Z,7.52
2023-01-05T18:39:21.725Z,7.47
2023-01-05T18:42:26.520Z,7.45
2023-01-05T18:45:38.461Z,7.44
2023-01-05T18:48:40.409Z,7.42
2023-01-05T18:51:45.568Z,7.40
2023-01-05T18:54:47.600Z,7.37
2023-01-05T18:57:50.843Z,7.36
2023-01-05T19:00:52.810Z,7.36
2023-01-05T19:03:55.348Z,7.34
2023-01-05T19:06:57.128Z,7.25
2023-01-05T19:09:58.895Z,7.26
2023-01-05T19:13:02.815Z,7.32
2023-01-05T19:16:05.115Z,7.32
2023-01-05T19:19:10.104Z,7.32
2023-01-05T19:22:11.931Z,7.35
2023-01-05T19:25:14.045Z,7.37
2023-01-05T19:28:17.414Z,7.39
2023-01-05T19:31:19.943Z,7.45
2023-01-05T19:34:21.917Z,7.44
2023-01-05T19:37:23.795Z,7.42
2023-01-05T19:40:25.631Z,7.43
2023-01-05T19:43:28.793Z,7.43
2023-01-05T19:46:31.266Z,7.36
2023-01-05T19:49:34.342Z,7.41
2023-01-05T19:52:36.134Z,7.47
2023-01-05T19:55:39.185Z,7.49
2023-01-05T19:58:43.371Z,7.48
2023-01-05T20:01:45.754Z,7.47
2023-01-05T20:04:47.908Z,7.45
2023-01-05T20:07:49.731Z,7.44
2023-01-05T20:10:51.679Z,7.45
2023-01-05T20:13:55.037Z,7.47
2023-01-05T20:16:57.949Z,7.48
2023-01-05T20:19:59.912Z,7.43
2023-01-05T20:23:01.832Z,7.40
2023-01-05T20:26:08.791Z,7.38
2023-01-05T20:29:13.297Z,7.37
2023-01-05T20:32:17.153Z,7.40
2023-01-05T20:35:19.253Z,7.39
2023-01-05T20:38:21.114Z,7.36
2023-01-05T20:41:25.794Z,7.39
2023-01-05T20:44:29.055Z,7.40
2023-01-05T20:47:39.414Z,7.39
2023-01-05T20:50:48.596Z,7.43
2023-01-05T20:53:51.792Z,7.41
2023-01-05T20:56:53.686Z,7.42
2023-01-05T20:59:57.178Z,7.41
2023-01-05T21:02:59.564Z,7.42
2023-01-05T21:06:01.831Z,7.42
2023-01-05T21:09:04.171Z,7.42
2023-01-05T21:12:06.428Z,7.38
2023-01-05T21:15:10.632Z,7.39
2023-01-05T21:18:12.678Z,7.40
2023-01-05T21:21:16.405Z,7.39
2023-01-05T21:24:18.396Z,7.38
2023-01-05T21:27:20.281Z,7.40
2023-01-05T21:30:23.562Z,7.39
2023-01-05T21:33:25.498Z,7.32
2023-01-05T21:36:29.969Z,7.27
2023-01-05T21:39:32.174Z,7.22
2023-01-05T21:42:40.175Z,7.20
2023-01-05T21:45:44.346Z,7.17
2023-01-05T21:48:46.420Z,7.15
2023-01-05T21:52:07.632Z,7.11
2023-01-05T21:55:28.808Z,7.13
2023-01-05T21:58:31.230Z,7.13
2023-01-05T22:01:37.045Z,7.09
2023-01-05T22:04:38.807Z,7.12
2023-01-05T22:07:40.619Z,7.11
2023-01-05T22:10:42.323Z,7.11
2023-01-05T22:13:44.284Z,7.11
2023-01-05T22:16:47.545Z,7.11
2023-01-05T22:19:49.464Z,7.11
2023-01-05T22:26:20.133Z,7.11
2023-01-05T22:29:23.004Z,7.13
2023-01-05T22:32:26.274Z,7.15
2023-01-05T22:35:28.541Z,7.15
2023-01-05T22:38:30.960Z,7.18
2023-01-05T22:45:36.453Z,7.23
2023-01-05T22:48:41.153Z,7.25
2023-01-05T22:51:43.336Z,7.25
2023-01-05T22:54:45.082Z,7.28
2023-01-05T22:57:46.934Z,7.24
2023-01-05T23:00:48.742Z,7.27
2023-01-05T23:03:52.956Z,7.27
2023-01-05T23:06:54.871Z,7.28
2023-01-05T23:09:56.621Z,7.28
2023-01-05T23:13:01.252Z,7.29
2023-01-05T23:16:03.694Z,7.30
2023-01-05T23:19:08.546Z,7.32
2023-01-05T23:22:11.592Z,7.31
2023-01-05T23:25:13.494Z,7.32
2023-01-05T23:28:18.123Z,7.31
2023-01-05T23:31:20.295Z,7.32
2023-01-05T23:34:23.250Z,7.32
2023-01-05T23:37:25.047Z,7.31
2023-01-05T23:40:26.847Z,7.30
2023-01-05T23:43:30.258Z,7.29
2023-01-05T23:46:32.096Z,7.30
2023-01-05T23:49:35.374Z,7.31
2023-01-05T23:52:37.387Z,7.29
2023-01-05T23:55:40.929Z,7.28
2023-01-05T23:58:43.851Z,7.26
